Flight Track Log - Related Links

Times and Time Zones

All times are in EDT time to prevent confusion due to time zone crossing. See the CES5097 flight status page for this flight to view local times or setup timezone preferences in your user account.

Time Position Orientation Groundspeed Altitude Reporting Facility
EDT Latitude Longitude Course Direction KTS MPH feet Rate Location/Type
Sat 03:04:42 AM 31.1791 121.3329 180° South 137 158 1,400  Level FlightAware ADS-B (ZSSS / SHA)
Sat 03:04:58 AM 31.1705 121.3329 180° South 128 147 2,100 2,897 Climbing FlightAware ADS-B (ZSSS / SHA)
Sat 03:05:11 AM 31.1621 121.3332 177° South 119 137 2,800 2,690 Climbing FlightAware ADS-B (ZSSS / SHA)
Sat 03:05:27 AM 31.1534 121.3338 176° South 118 136 3,400 1,742 Climbing FlightAware ADS-B (ZSSS / SHA)
Sat 03:05:42 AM 31.1469 121.3344 176° South 129 148 3,700 1,000 Climbing FlightAware ADS-B (ZSSS / SHA)
Sat 03:05:57 AM 31.1347 121.3355 175° South 160 184 3,900 800 Climbing FlightAware ADS-B (ZSSS / SHA)
Sat 03:06:12 AM 31.1217 121.3366 176° South 189 217 4,100 1,000 Climbing FlightAware ADS-B (ZSSS / SHA)
Sat 03:06:27 AM 31.1071 121.3369 183° South 221 254 4,400 1,263 Climbing FlightAware ADS-B (ZSSS / SHA)
Sat 03:06:31 AM 31.1041 121.3364 190° South 231 266 4,500 2,000 Climbing FlightAware ADS-B (ZSSS / SHA)
Sat 03:06:39 AM 31.0956 121.3336 203° Southwest 244 281 4,800 2,625 Climbing FlightAware ADS-B (ZSSS / SHA)
Sat 03:06:47 AM 31.0864 121.3271 216° Southwest 252 290 5,200 3,529 Climbing FlightAware ADS-B (ZSSS / SHA)
Sat 03:06:56 AM 31.0804 121.3198 232° Southwest 258 297 5,800 3,692 Climbing FlightAware ADS-B (ZSSS / SHA)
Sat 03:07:00 AM 31.0776 121.3150 237° Southwest 260 299 6,000 3,273 Climbing FlightAware ADS-B (ZSSS / SHA)
Sat 03:07:07 AM 31.0740 121.3056 253° West 268 308 6,400 4,000 Climbing FlightAware ADS-B (ZSSS / SHA)
Sat 03:07:12 AM 31.0724 121.2961 259° West 270 311 6,800 4,200 Climbing FlightAware ADS-B (ZSSS / SHA)
Sat 03:07:17 AM 31.0720 121.2900 269° West 275 316 7,100 2,842 Climbing FlightAware ADS-B (ZSSS / SHA)
Sat 03:07:31 AM 31.0718 121.2683 270° West 282 325 7,700 2,903 Climbing FlightAware ADS-B (ZSSS / SHA)
Sat 03:07:48 AM 31.0713 121.2425 269° West 288 331 8,600 3,677 Climbing FlightAware ADS-B (ZSSS / SHA)
Sat 03:08:02 AM 31.0706 121.2201 269° West 285 328 9,600 2,430 Climbing FlightAware ADS-B (ZSSS / SHA)
Sat 03:09:07 AM 31.0648 121.1135 258° West 343 395 11,800 2,031 Climbing FlightAware ADS-B (ZSSS / SHA)
Sat 03:11:00 AM 30.9436 121.1229 176° South  Level Estimated
Sat 03:12:00 AM 30.8792 121.1279 176° South  Level Estimated
Sat 03:13:00 AM 30.8148 121.1328 176° South  Level Estimated
Sat 03:14:00 AM 30.7504 121.1378 176° South  Level Estimated
Sat 03:15:00 AM 30.6860 121.1427 176° South  Level Estimated
Sat 03:16:00 AM 30.6216 121.1477 176° South  Level Estimated
Sat 03:17:00 AM 30.5452 121.1535 176° South  Level Estimated
Sat 03:18:00 AM 30.4687 121.1594 176° South  Level Estimated
Sat 03:19:00 AM 30.3923 121.1652 176° South  Level Estimated
Sat 03:20:00 AM 30.3158 121.1711 176° South  Level Estimated
Sat 03:21:00 AM 30.2393 121.1769 176° South  Level Estimated
Sat 03:22:00 AM 30.1629 121.1827 176° South  Level Estimated
Sat 03:23:00 AM 30.0864 121.1885 176° South  Level Estimated
Sat 03:24:00 AM 30.0100 121.1943 176° South  Level Estimated
Sat 03:25:00 AM 29.9335 121.2001 176° South  Level Estimated
Sat 03:26:00 AM 29.8570 121.2059 176° South  Level Estimated
Sat 03:27:00 AM 29.7806 121.2116 176° South  Level Estimated
Sat 03:28:00 AM 29.7041 121.2174 176° South  Level Estimated
Sat 03:29:00 AM 29.6276 121.2232 176° South  Level Estimated
Sat 03:30:00 AM 29.5512 121.2289 176° South  Level Estimated
Sat 03:31:00 AM 29.4747 121.2346 176° South  Level Estimated
Sat 03:32:00 AM 29.3983 121.2404 176° South  Level Estimated
Sat 03:33:00 AM 29.3218 121.2461 176° South  Level Estimated
Sat 03:34:00 AM 29.2453 121.2518 176° South  Level Estimated
Sat 03:35:00 AM 29.1689 121.2575 176° South  Level Estimated
Sat 03:36:00 AM 29.0924 121.2632 176° South  Level Estimated
Sat 03:37:00 AM 29.0159 121.2689 176° South  Level Estimated
Sat 03:38:00 AM 28.9395 121.2745 176° South  Level Estimated
Sat 03:39:00 AM 28.8630 121.2802 176° South  Level Estimated
Sat 03:40:00 AM 28.7865 121.2859 176° South  Level Estimated
Sat 03:41:00 AM 28.7101 121.2915 176° South  Level Estimated
Sat 03:42:00 AM 28.6336 121.2972 176° South  Level Estimated
Sat 03:43:00 AM 28.5571 121.3028 176° South  Level Estimated
Sat 03:44:00 AM 28.4807 121.3084 176° South  Level Estimated
Sat 03:45:00 AM 28.4070 121.3138 176° South  Level Estimated
Sat 03:46:00 AM 28.3333 121.3193 176° South  Level Estimated
Sat 03:47:00 AM 28.2596 121.3247 176° South  Level Estimated
Sat 03:48:00 AM 28.1859 121.3300 176° South  Level Estimated
Sat 03:49:00 AM 28.1122 121.3354 176° South  Level Estimated
Sat 03:50:00 AM 28.0385 121.3408 176° South  Level Estimated
Sat 03:51:00 AM 27.9648 121.3462 176° South  Level Estimated
Sat 03:52:00 AM 27.8911 121.3515 176° South  Level Estimated
Sat 03:53:00 AM 27.8173 121.3569 176° South  Level Estimated
Sat 03:54:00 AM 27.7436 121.3623 176° South  Level Estimated
Sat 03:55:00 AM 27.6699 121.3676 176° South  Level Estimated
Sat 03:56:00 AM 27.5962 121.3729 176° South  Level Estimated
Sat 03:57:00 AM 27.5225 121.3783 176° South  Level Estimated
Sat 03:58:00 AM 27.4488 121.3836 176° South  Level Estimated
Sat 03:59:00 AM 27.3751 121.3889 176° South  Level Estimated
Sat 04:00:00 AM 27.3014 121.3942 176° South  Level Estimated
Sat 04:01:00 AM 27.2277 121.3995 176° South  Level Estimated
Sat 04:02:00 AM 27.1540 121.4048 176° South  Level Estimated
Sat 04:03:00 AM 27.0803 121.4101 176° South  Level Estimated
Sat 04:04:00 AM 27.0066 121.4153 176° South  Level Estimated
Sat 04:05:00 AM 26.9329 121.4206 176° South  Level Estimated
Sat 04:06:00 AM 26.8592 121.4259 176° South  Level Estimated
Sat 04:07:00 AM 26.7855 121.4311 176° South  Level Estimated
Sat 04:08:00 AM 26.7118 121.4364 176° South  Level Estimated
Sat 04:09:00 AM 26.6381 121.4416 176° South  Level Estimated
Sat 04:10:00 AM 26.5643 121.4469 176° South  Level Estimated
Sat 04:11:00 AM 26.4906 121.4521 176° South  Level Estimated
Sat 04:12:00 AM 26.4169 121.4573 176° South  Level Estimated
Sat 04:13:00 AM 26.3432 121.4625 176° South  Level Estimated
Sat 04:14:00 AM 26.2695 121.4678 176° South  Level Estimated
Sat 04:15:00 AM 26.1958 121.4730 176° South  Level Estimated
Sat 04:16:00 AM 26.1221 121.4781 176° South  Level Estimated
Sat 04:17:00 AM 26.0484 121.4833 176° South  Level Estimated
Sat 04:18:00 AM 25.9747 121.4885 176° South  Level Estimated
Sat 04:19:00 AM 25.9010 121.4937 176° South  Level Estimated
Sat 04:20:00 AM 25.8273 121.4989 176° South  Level Estimated
Sat 04:21:00 AM 25.7535 121.5040 176° South  Level Estimated
Sat 04:22:00 AM 25.6798 121.5092 176° South  Level Estimated
Sat 04:23:00 AM 25.6061 121.5144 176° South  Level Estimated
Sat 04:24:00 AM 25.5324 121.5195 176° South  Level Estimated
Sat 04:25:00 AM 25.4587 121.5246 176° South  Level Estimated
Sat 04:26:00 AM 25.3850 121.5298 176° South  Level Estimated
Sat 04:27:00 AM 25.3113 121.5349 176° South  Level Estimated
Sat 04:28:00 AM 25.2376 121.5400 176° South  Level Estimated
Sat 04:29:00 AM 25.1639 121.5451 176° South  Level Estimated
Sat 04:30:00 AM 25.0902 121.5502 176° South  Level Estimated
Sat 04:31:00 AM 25.0694 121.5517 176° South  Level Estimated
Sat 04:32:00 AM 25.0694 121.5517 North  Level Estimated
Sat 04:33:00 AM 25.0694 121.5517 North  Level Estimated
Sat 04:34:00 AM 25.0694 121.5517 North  Level Estimated
Sat 04:35:00 AM 25.0694 121.5517 North  Level Estimated
Sat 04:36:00 AM 25.0694 121.5517 North  Level Estimated
Sat 04:37:00 AM 25.0694 121.5517 North  Level Estimated
Sat 04:38:00 AM 25.0694 121.5517 North  Level Estimated
Sat 04:39:00 AM 25.0694 121.5517 North  Level Estimated
Sat 04:40:00 AM 25.0694 121.5517 North  Level Estimated
Sat 04:41:00 AM 25.0694 121.5517 North  Level Estimated
Sat 04:42:00 AM 25.0694 121.5517 North  Level Estimated
Sat 04:43:00 AM 25.0694 121.5517 North  Level Estimated
Sat 04:44:00 AM 25.0694 121.5517 North  Level Estimated
Sat 04:45:00 AM 25.0694 121.5517 North  Level Estimated

Login

Don't have an account? Register now (free) for customized features, flight alerts, and more!